createdAt,value
2018-10-18T00:01:34.169Z,45.03
2018-10-18T00:04:03.448Z,46.50
2018-10-18T00:06:32.701Z,44.37
2018-10-18T00:09:02.032Z,50.40
2018-10-18T00:11:31.289Z,45.80
2018-10-18T00:14:00.641Z,48.07
2018-10-18T00:16:29.888Z,48.53
2018-10-18T00:18:59.174Z,48.90
2018-10-18T00:21:28.470Z,47.43
2018-10-18T00:23:57.762Z,48.33
2018-10-18T00:26:27.003Z,44.17
2018-10-18T00:28:56.304Z,43.13
2018-10-18T00:32:28.548Z,43.07
2018-10-18T00:34:57.863Z,38.87
2018-10-18T00:37:27.121Z,38.57
2018-10-18T00:39:56.373Z,39.53
2018-10-18T00:42:25.672Z,40.93
2018-10-18T00:44:54.922Z,40.23
2018-10-18T00:47:24.208Z,40.83
2018-10-18T00:49:53.568Z,41.13
2018-10-18T00:52:22.833Z,40.13
2018-10-18T00:54:52.076Z,35.50
2018-10-18T00:57:21.386Z,37.83
2018-10-18T00:59:50.653Z,37.47
2018-10-18T01:02:20.005Z,40.90
2018-10-18T01:04:49.280Z,45.37
2018-10-18T01:07:18.696Z,45.30
2018-10-18T01:09:47.944Z,46.00
2018-10-18T01:12:17.353Z,45.20
2018-10-18T01:14:46.594Z,44.27
2018-10-18T01:17:15.839Z,43.73
2018-10-18T01:19:45.136Z,42.47
2018-10-18T01:22:14.406Z,49.30
2018-10-18T01:24:43.648Z,48.57
2018-10-18T01:27:13.009Z,44.60
2018-10-18T01:29:42.259Z,44.80
2018-10-18T01:32:11.567Z,42.53
2018-10-18T01:34:40.869Z,44.13
2018-10-18T01:37:10.227Z,43.00
2018-10-18T01:39:39.467Z,47.63
2018-10-18T01:42:08.818Z,49.90
2018-10-18T01:44:38.069Z,49.67
2018-10-18T01:47:07.335Z,51.40
2018-10-18T01:49:36.588Z,47.17
2018-10-18T01:52:06.134Z,42.53
2018-10-18T01:54:35.416Z,41.27
2018-10-18T01:57:04.734Z,40.90
2018-10-18T01:59:34.053Z,48.23
2018-10-18T02:02:03.367Z,48.90
2018-10-18T02:04:32.635Z,51.10
2018-10-18T02:07:01.965Z,51.17
2018-10-18T02:09:31.272Z,56.50
2018-10-18T02:12:00.531Z,53.80
2018-10-18T02:14:29.830Z,57.13
2018-10-18T02:16:59.099Z,60.50
2018-10-18T02:19:28.385Z,61.43
2018-10-18T02:21:57.730Z,60.37
2018-10-18T02:24:26.975Z,61.40
2018-10-18T02:26:56.235Z,58.87
2018-10-18T02:29:25.540Z,64.57
2018-10-18T02:31:54.771Z,62.87
2018-10-18T02:34:24.082Z,60.00
2018-10-18T02:36:53.316Z,78.73
2018-10-18T02:39:22.585Z,66.50
2018-10-18T02:41:52.000Z,67.67
2018-10-18T02:44:21.256Z,68.40
2018-10-18T02:46:50.501Z,66.27
2018-10-18T02:49:19.958Z,61.37
2018-10-18T02:51:49.214Z,70.23
2018-10-18T02:54:18.597Z,66.60
2018-10-18T02:56:47.818Z,72.67
2018-10-18T02:59:17.064Z,70.97
2018-10-18T03:01:46.368Z,68.83
2018-10-18T03:04:15.656Z,72.43
2018-10-18T03:06:44.904Z,68.40
2018-10-18T03:09:14.204Z,67.37
2018-10-18T03:11:43.488Z,65.90
2018-10-18T03:14:12.743Z,63.93
2018-10-18T03:16:41.987Z,60.30
2018-10-18T03:19:11.280Z,57.37
2018-10-18T03:21:40.529Z,57.60
2018-10-18T03:24:09.956Z,57.97
2018-10-18T03:26:39.267Z,63.53
2018-10-18T03:29:08.531Z,64.70
2018-10-18T03:31:38.045Z,58.40
2018-10-18T03:34:07.654Z,56.30
2018-10-18T03:36:37.005Z,63.17
2018-10-18T03:39:09.286Z,60.93
2018-10-18T03:41:38.918Z,57.40
2018-10-18T03:44:08.239Z,73.33
2018-10-18T03:46:37.684Z,71.90
2018-10-18T03:49:07.087Z,68.23
2018-10-18T03:51:36.795Z,67.73
2018-10-18T03:54:06.307Z,66.37
2018-10-18T03:56:35.737Z,74.23
2018-10-18T03:59:05.456Z,73.67
2018-10-18T04:01:34.894Z,66.27
2018-10-18T04:04:04.288Z,67.37
2018-10-18T04:06:33.680Z,67.13
2018-10-18T04:09:03.242Z,80.40
2018-10-18T04:11:32.633Z,88.77
2018-10-18T04:14:02.024Z,85.73
2018-10-18T04:16:31.450Z,76.07
2018-10-18T04:19:00.877Z,82.30
2018-10-18T04:21:30.412Z,72.67
2018-10-18T04:23:59.892Z,78.27
2018-10-18T04:26:29.274Z,80.27
2018-10-18T04:28:58.648Z,87.07
2018-10-18T04:31:28.076Z,79.90
2018-10-18T04:33:57.501Z,77.13
2018-10-18T04:36:26.888Z,75.63
2018-10-18T04:38:56.317Z,68.63
2018-10-18T04:41:25.689Z,79.73
2018-10-18T04:43:55.082Z,74.83
2018-10-18T04:46:24.565Z,79.20
2018-10-18T04:48:54.009Z,82.37
2018-10-18T04:51:23.315Z,73.77
2018-10-18T04:53:52.682Z,74.63
2018-10-18T04:56:21.953Z,80.97
2018-10-18T04:58:51.214Z,70.20
2018-10-18T05:01:20.629Z,70.23
2018-10-18T05:03:49.886Z,71.33
2018-10-18T05:06:19.152Z,83.67
2018-10-18T05:08:48.452Z,82.77
2018-10-18T05:11:17.766Z,81.13
2018-10-18T05:13:47.019Z,74.10
2018-10-18T05:16:16.334Z,72.43
2018-10-18T05:18:45.606Z,75.67
2018-10-18T05:21:14.867Z,81.37
2018-10-18T05:23:44.211Z,81.00
2018-10-18T05:26:13.565Z,72.83
2018-10-18T05:28:42.827Z,76.10
2018-10-18T05:31:12.223Z,74.87
2018-10-18T05:33:41.428Z,85.03
2018-10-18T05:36:10.682Z,75.40
2018-10-18T05:38:39.978Z,80.17
2018-10-18T05:41:09.240Z,75.13
2018-10-18T05:43:38.493Z,82.30
2018-10-18T05:46:07.840Z,72.33
2018-10-18T05:48:37.085Z,78.77
2018-10-18T05:51:06.391Z,81.80
2018-10-18T05:53:35.947Z,79.57
2018-10-18T05:56:05.302Z,85.27
2018-10-18T05:58:34.605Z,81.40
2018-10-18T06:01:04.068Z,84.47
2018-10-18T06:03:33.430Z,70.33
2018-10-18T06:06:02.806Z,69.03
2018-10-18T06:08:32.209Z,70.23
2018-10-18T06:11:12.397Z,82.33
2018-10-18T06:13:41.837Z,77.87
2018-10-18T06:16:11.231Z,73.83
2018-10-18T06:18:40.539Z,71.40
2018-10-18T06:21:09.844Z,78.97
2018-10-18T06:23:39.448Z,75.47
2018-10-18T06:26:08.770Z,79.20
2018-10-18T06:28:38.085Z,84.30
2018-10-18T06:31:07.491Z,84.47
2018-10-18T06:33:36.826Z,77.20
2018-10-18T06:36:06.134Z,82.00
2018-10-18T06:38:35.497Z,77.00
2018-10-18T06:41:04.844Z,74.07
2018-10-18T06:43:39.317Z,77.73
2018-10-18T06:46:12.620Z,69.97
2018-10-18T06:48:42.579Z,77.67
2018-10-18T06:51:12.058Z,67.77
2018-10-18T06:53:42.135Z,71.90
2018-10-18T06:56:11.460Z,66.00
2018-10-18T06:58:40.772Z,69.43
2018-10-18T07:01:10.175Z,65.87
2018-10-18T07:03:39.486Z,64.40
2018-10-18T07:06:08.863Z,63.90
2018-10-18T07:08:38.222Z,57.60
2018-10-18T07:11:07.901Z,70.33
2018-10-18T07:13:37.181Z,59.83
2018-10-18T07:16:06.810Z,68.93
2018-10-18T07:18:36.200Z,64.70
2018-10-18T07:21:05.894Z,64.20
2018-10-18T07:23:35.285Z,63.37
2018-10-18T07:26:04.664Z,70.60
2018-10-18T07:28:33.975Z,61.30
2018-10-18T07:31:03.426Z,62.80
2018-10-18T07:33:32.740Z,59.83
2018-10-18T07:36:02.057Z,55.63
2018-10-18T07:38:31.397Z,63.97
2018-10-18T07:41:00.756Z,60.97
2018-10-18T07:43:30.126Z,64.13
2018-10-18T07:45:59.422Z,64.63
2018-10-18T07:48:29.074Z,60.13
2018-10-18T07:50:58.456Z,56.70
2018-10-18T07:53:27.819Z,60.93
2018-10-18T07:55:57.114Z,61.10
2018-10-18T07:58:26.430Z,59.07
2018-10-18T08:00:55.797Z,62.77
2018-10-18T08:03:25.132Z,56.83
2018-10-18T08:05:54.427Z,58.33
2018-10-18T08:08:23.758Z,57.97
2018-10-18T08:10:53.118Z,56.47
2018-10-18T08:13:22.509Z,50.50
2018-10-18T08:15:51.808Z,60.30
2018-10-18T08:18:21.165Z,55.17
2018-10-18T08:20:50.474Z,52.13
2018-10-18T08:23:19.760Z,47.73
2018-10-18T08:25:49.131Z,54.93
2018-10-18T08:28:18.464Z,53.97
2018-10-18T08:30:47.898Z,51.40
2018-10-18T08:33:17.256Z,64.50
2018-10-18T08:35:46.562Z,51.57
2018-10-18T08:38:15.975Z,56.43
2018-10-18T08:40:45.366Z,58.10
2018-10-18T08:43:14.705Z,51.87
2018-10-18T08:45:44.042Z,59.93
2018-10-18T08:48:13.420Z,43.67
2018-10-18T08:50:42.723Z,56.37
2018-10-18T08:53:12.035Z,48.67
2018-10-18T08:55:41.550Z,51.50
2018-10-18T08:58:10.854Z,52.03
2018-10-18T09:00:40.155Z,50.10
2018-10-18T09:03:09.517Z,56.43
2018-10-18T09:05:38.815Z,45.37
2018-10-18T09:08:08.121Z,49.67
2018-10-18T09:10:37.484Z,51.63
2018-10-18T09:13:06.891Z,48.17
2018-10-18T09:15:36.226Z,51.37
2018-10-18T09:18:05.642Z,49.17
2018-10-18T09:20:34.960Z,49.03
2018-10-18T09:23:04.275Z,48.87
2018-10-18T09:25:33.635Z,51.53
2018-10-18T09:28:02.929Z,54.03
2018-10-18T09:30:32.224Z,51.00
2018-10-18T09:33:01.579Z,50.67
2018-10-18T09:35:30.884Z,48.70
2018-10-18T09:38:00.309Z,45.10
2018-10-18T09:40:29.667Z,46.30
2018-10-18T09:42:59.025Z,54.13
2018-10-18T09:45:28.331Z,52.43
2018-10-18T09:47:57.684Z,56.63
2018-10-18T09:50:27.016Z,51.90
2018-10-18T09:52:56.383Z,54.80
2018-10-18T09:55:25.797Z,54.67
2018-10-18T09:57:55.120Z,51.63
2018-10-18T10:00:29.644Z,49.60
2018-10-18T10:03:04.061Z,43.17
2018-10-18T10:05:33.552Z,54.37
2018-10-18T10:08:02.872Z,49.07
2018-10-18T10:10:32.196Z,47.10
2018-10-18T10:13:01.602Z,48.27
2018-10-18T10:15:30.940Z,46.43
2018-10-18T10:18:00.257Z,51.47
2018-10-18T10:20:29.625Z,44.43
2018-10-18T10:22:59.092Z,60.00
2018-10-18T10:25:28.793Z,65.53
2018-10-18T10:27:58.372Z,53.13
2018-10-18T10:30:27.856Z,52.23
2018-10-18T10:32:57.152Z,54.17
2018-10-18T10:35:26.596Z,46.93
2018-10-18T10:37:55.944Z,48.87
2018-10-18T10:40:25.263Z,52.43
2018-10-18T10:42:54.683Z,44.23
2018-10-18T10:45:24.022Z,41.17
2018-10-18T10:47:53.689Z,40.73
2018-10-18T10:50:23.047Z,45.67
2018-10-18T10:52:52.355Z,40.30
2018-10-18T10:55:21.656Z,38.50
2018-10-18T10:57:51.004Z,36.57
2018-10-18T11:00:30.758Z,41.67
2018-10-18T11:03:00.139Z,44.20
2018-10-18T11:05:29.491Z,39.97
2018-10-18T11:07:58.920Z,42.60
2018-10-18T11:10:28.276Z,39.50
2018-10-18T11:12:57.632Z,50.13
2018-10-18T11:15:26.936Z,46.70
2018-10-18T11:17:56.259Z,49.73
2018-10-18T11:20:25.619Z,39.37
2018-10-18T11:22:54.925Z,38.50
2018-10-18T11:25:24.224Z,37.73
2018-10-18T11:27:53.655Z,50.23
2018-10-18T11:30:22.994Z,50.67
2018-10-18T11:32:52.346Z,45.83
2018-10-18T11:35:21.917Z,47.70
2018-10-18T11:37:51.241Z,44.17
2018-10-18T11:40:20.529Z,47.77
2018-10-18T11:42:50.000Z,46.77
2018-10-18T11:45:19.231Z,44.87
2018-10-18T11:47:48.536Z,52.73
2018-10-18T11:50:17.952Z,41.57
2018-10-18T11:52:47.379Z,42.80
2018-10-18T11:55:16.726Z,45.60
2018-10-18T11:57:46.416Z,42.73
2018-10-18T12:00:19.528Z,41.30
2018-10-18T12:02:50.056Z,47.37
2018-10-18T12:05:19.452Z,43.60
2018-10-18T12:07:48.858Z,42.00
2018-10-18T12:10:18.163Z,39.97
2018-10-18T12:12:47.468Z,39.63
2018-10-18T12:15:16.842Z,40.13
2018-10-18T12:17:46.157Z,47.37
2018-10-18T12:20:16.884Z,38.10
2018-10-18T12:22:46.220Z,45.90
2018-10-18T12:25:15.877Z,40.17
2018-10-18T12:27:45.675Z,43.50
2018-10-18T12:30:15.548Z,40.00
2018-10-18T12:32:44.889Z,39.03
2018-10-18T12:35:14.300Z,35.60
2018-10-18T12:37:43.542Z,39.63
2018-10-18T12:40:12.968Z,39.93
2018-10-18T12:42:43.676Z,36.07
2018-10-18T12:45:13.527Z,35.33
2018-10-18T12:47:42.876Z,39.73
2018-10-18T12:50:12.224Z,36.13
2018-10-18T12:52:41.605Z,35.23
2018-10-18T12:55:10.924Z,35.77
2018-10-18T12:57:40.265Z,38.87
2018-10-18T13:00:10.664Z,35.50
2018-10-18T13:02:40.015Z,37.53
2018-10-18T13:05:10.676Z,37.70
2018-10-18T13:07:39.994Z,41.37
2018-10-18T13:10:11.569Z,37.27
2018-10-18T13:12:41.435Z,31.80
2018-10-18T13:15:11.946Z,34.93
2018-10-18T13:17:41.264Z,35.20
2018-10-18T13:20:11.307Z,35.43
2018-10-18T13:22:40.937Z,32.70
2018-10-18T13:25:11.537Z,32.20
2018-10-18T13:27:41.007Z,30.00
2018-10-18T13:30:11.245Z,30.27
2018-10-18T13:32:41.373Z,32.00
2018-10-18T13:35:11.355Z,36.20
2018-10-18T13:37:40.683Z,32.43
2018-10-18T13:40:10.067Z,32.47
2018-10-18T13:42:39.373Z,39.20
2018-10-18T13:45:08.949Z,38.67
2018-10-18T13:47:38.327Z,35.03
2018-10-18T13:50:07.938Z,39.57
2018-10-18T13:52:37.254Z,35.40
2018-10-18T13:55:07.716Z,29.77
2018-10-18T13:57:37.117Z,39.00
2018-10-18T14:00:19.731Z,32.33
2018-10-18T14:02:49.219Z,36.90
2018-10-18T14:05:18.700Z,41.60
2018-10-18T14:07:48.171Z,41.00
2018-10-18T14:10:17.476Z,36.00
2018-10-18T14:12:46.788Z,37.37
2018-10-18T14:15:16.183Z,35.43
2018-10-18T14:17:45.558Z,36.73
2018-10-18T14:20:15.023Z,36.37
2018-10-18T14:22:44.301Z,33.53
2018-10-18T14:25:13.606Z,34.57
2018-10-18T14:27:42.954Z,45.07
2018-10-18T14:30:13.165Z,44.13
2018-10-18T14:32:42.497Z,42.27
2018-10-18T14:35:13.063Z,43.33
2018-10-18T14:37:42.340Z,36.73
2018-10-18T14:40:12.596Z,43.87
2018-10-18T14:42:42.011Z,43.33
2018-10-18T14:45:11.630Z,35.97
2018-10-18T14:47:40.987Z,35.33
2018-10-18T14:50:12.674Z,31.63
2018-10-18T14:52:42.162Z,38.37
2018-10-18T14:55:11.476Z,39.23
2018-10-18T14:57:41.230Z,37.10
2018-10-18T15:00:12.053Z,34.00
2018-10-18T15:02:41.466Z,28.70
2018-10-18T15:05:11.850Z,36.83
2018-10-18T15:07:41.710Z,31.67
2018-10-18T15:10:12.927Z,26.83
2018-10-18T15:12:42.540Z,28.97
2018-10-18T15:15:13.100Z,28.20
2018-10-18T15:17:42.690Z,31.53
2018-10-18T15:20:12.836Z,29.00
2018-10-18T15:22:42.955Z,27.27
2018-10-18T15:25:13.320Z,26.03
2018-10-18T15:27:43.223Z,26.13
2018-10-18T15:30:13.165Z,24.90
2018-10-18T15:32:42.481Z,25.13
2018-10-18T15:35:12.440Z,24.60
2018-10-18T15:37:42.127Z,23.80
2018-10-18T15:40:11.616Z,24.03
2018-10-18T15:42:40.923Z,23.20
2018-10-18T15:45:10.983Z,24.27
2018-10-18T15:47:40.391Z,25.67
2018-10-18T15:50:10.657Z,25.93
2018-10-18T15:52:39.954Z,25.67
2018-10-18T15:55:09.868Z,25.90
2018-10-18T15:57:39.300Z,22.60
2018-10-18T16:00:10.520Z,23.50
2018-10-18T16:02:39.949Z,24.50
2018-10-18T16:05:09.408Z,21.90
2018-10-18T16:07:38.833Z,21.60
2018-10-18T16:10:08.918Z,22.13
2018-10-18T16:12:38.800Z,23.23
2018-10-18T16:15:09.483Z,21.33
2018-10-18T16:17:38.952Z,21.27
2018-10-18T16:20:09.669Z,20.67
2018-10-18T16:22:39.609Z,22.83
2018-10-18T16:25:10.413Z,20.17
2018-10-18T16:27:39.987Z,20.47
2018-10-18T16:30:09.392Z,20.97
2018-10-18T16:32:38.989Z,19.50
2018-10-18T16:35:09.215Z,22.83
2018-10-18T16:37:38.535Z,19.60
2018-10-18T16:40:08.029Z,18.90
2018-10-18T16:42:37.392Z,20.03
2018-10-18T16:45:09.305Z,18.53
2018-10-18T16:47:38.699Z,19.77
2018-10-18T16:50:08.615Z,20.33
2018-10-18T16:52:37.976Z,20.73
2018-10-18T16:55:07.828Z,20.53
2018-10-18T16:57:37.139Z,20.90
2018-10-18T17:00:07.931Z,20.13
2018-10-18T17:02:37.250Z,22.40
2018-10-18T17:05:06.638Z,21.03
2018-10-18T17:07:36.010Z,20.93
2018-10-18T17:10:05.634Z,20.07
2018-10-18T17:12:35.054Z,20.10
2018-10-18T17:15:04.395Z,19.17
2018-10-18T17:17:33.740Z,19.33
2018-10-18T17:20:03.170Z,17.50
2018-10-18T17:22:32.490Z,19.90
2018-10-18T17:25:01.789Z,20.17
2018-10-18T17:27:31.340Z,20.63
2018-10-18T17:30:00.624Z,21.87
2018-10-18T17:32:30.016Z,18.60
2018-10-18T17:34:59.309Z,17.93
2018-10-18T17:37:28.693Z,15.43
2018-10-18T17:39:58.048Z,18.20
2018-10-18T17:42:27.352Z,17.80
2018-10-18T17:44:56.682Z,17.20
2018-10-18T17:47:26.142Z,17.57
2018-10-18T17:49:55.522Z,18.50
2018-10-18T17:52:24.887Z,16.70
2018-10-18T17:54:54.230Z,16.40
2018-10-18T17:57:23.545Z,15.97
2018-10-18T17:59:53.326Z,14.23
2018-10-18T18:02:22.948Z,12.80
2018-10-18T18:04:52.314Z,12.80
2018-10-18T18:07:21.721Z,12.77
2018-10-18T18:09:51.052Z,12.50
2018-10-18T18:12:20.360Z,11.93
2018-10-18T18:14:49.725Z,12.00
2018-10-18T18:17:19.032Z,11.97
2018-10-18T18:19:48.363Z,13.10
2018-10-18T18:22:17.796Z,11.73
2018-10-18T18:24:47.101Z,11.97
2018-10-18T18:27:16.351Z,13.67
2018-10-18T18:29:45.712Z,11.30
2018-10-18T18:32:14.978Z,13.13
2018-10-18T18:34:44.279Z,11.90
2018-10-18T18:37:13.600Z,12.23
2018-10-18T18:39:42.842Z,12.37
2018-10-18T18:42:12.178Z,12.20
2018-10-18T18:44:46.128Z,12.50
2018-10-18T18:47:15.437Z,13.33
2018-10-18T18:49:44.686Z,12.83
2018-10-18T18:52:13.985Z,13.33
2018-10-18T18:54:43.259Z,12.57
2018-10-18T18:57:12.555Z,14.10
2018-10-18T18:59:41.871Z,13.67
2018-10-18T19:02:11.116Z,16.50
2018-10-18T19:04:40.350Z,14.20
2018-10-18T19:07:09.678Z,19.07
2018-10-18T19:09:38.931Z,13.43
2018-10-18T19:12:08.197Z,13.43
2018-10-18T19:14:37.475Z,20.83
2018-10-18T19:17:07.269Z,16.07
2018-10-18T19:19:37.008Z,15.10
2018-10-18T19:22:06.996Z,14.80
2018-10-18T19:24:36.258Z,23.27
2018-10-18T19:27:05.785Z,16.17
2018-10-18T19:29:35.107Z,15.53
2018-10-18T19:32:04.532Z,17.80
2018-10-18T19:34:33.787Z,17.57
2018-10-18T19:37:18.899Z,17.80
2018-10-18T19:39:48.244Z,16.23
2018-10-18T19:42:17.509Z,15.60
2018-10-18T19:44:46.903Z,17.10
2018-10-18T19:47:16.297Z,16.00
2018-10-18T19:49:46.461Z,22.20
2018-10-18T19:52:15.849Z,17.93
2018-10-18T19:54:45.094Z,16.90
2018-10-18T19:57:14.384Z,19.60
2018-10-18T19:59:43.688Z,17.87
2018-10-18T20:02:13.030Z,20.10
2018-10-18T20:04:42.264Z,17.53
2018-10-18T20:07:11.623Z,17.60
2018-10-18T20:09:40.930Z,17.57
2018-10-18T20:12:10.195Z,20.17
2018-10-18T20:14:39.540Z,20.20
2018-10-18T20:17:09.150Z,20.73
2018-10-18T20:19:38.399Z,21.20
2018-10-18T20:22:11.092Z,19.57
2018-10-18T20:24:40.481Z,18.87
2018-10-18T20:27:10.619Z,20.30
2018-10-18T20:29:39.928Z,18.83
2018-10-18T20:32:09.240Z,18.77
2018-10-18T20:34:38.548Z,19.17
2018-10-18T20:37:07.816Z,19.27
2018-10-18T20:39:37.123Z,19.63
2018-10-18T20:42:06.506Z,20.67
2018-10-18T20:44:35.739Z,19.83
2018-10-18T20:47:05.072Z,21.03
2018-10-18T20:49:34.372Z,20.50
2018-10-18T20:52:03.629Z,19.27
2018-10-18T20:54:32.926Z,20.67
2018-10-18T20:57:02.194Z,21.00
2018-10-18T20:59:31.489Z,21.50
2018-10-18T21:02:00.845Z,20.60
2018-10-18T21:04:30.091Z,21.80
2018-10-18T21:06:59.355Z,21.10
2018-10-18T21:09:28.696Z,21.33
2018-10-18T21:11:58.001Z,23.57
2018-10-18T21:14:27.239Z,21.63
2018-10-18T21:16:56.543Z,23.13
2018-10-18T21:19:25.804Z,22.37
2018-10-18T21:21:55.148Z,25.93
2018-10-18T21:24:24.444Z,22.83
2018-10-18T21:26:53.718Z,21.83
2018-10-18T21:29:23.067Z,19.77
2018-10-18T21:31:52.415Z,17.53
2018-10-18T21:34:21.687Z,21.70
2018-10-18T21:36:51.016Z,21.83
2018-10-18T21:39:31.524Z,22.87
2018-10-18T21:42:01.434Z,22.80
2018-10-18T21:44:34.191Z,19.53
2018-10-18T21:47:03.495Z,21.53
2018-10-18T21:49:33.198Z,20.90
2018-10-18T21:52:02.517Z,18.17
2018-10-18T21:54:31.784Z,20.07
2018-10-18T21:57:01.130Z,19.13
2018-10-18T21:59:30.364Z,18.93
2018-10-18T22:01:59.626Z,19.23
2018-10-18T22:04:28.948Z,17.97
2018-10-18T22:06:58.413Z,19.23
2018-10-18T22:09:27.676Z,18.07
2018-10-18T22:11:56.984Z,19.00
2018-10-18T22:14:26.387Z,18.73
2018-10-18T22:16:55.666Z,19.40
2018-10-18T22:19:24.976Z,19.83
2018-10-18T22:21:54.257Z,17.83
2018-10-18T22:24:23.505Z,17.57
2018-10-18T22:26:52.860Z,18.00
2018-10-18T22:29:22.106Z,19.57
2018-10-18T22:31:51.372Z,19.27
2018-10-18T22:34:20.660Z,21.90
2018-10-18T22:36:49.928Z,21.33
2018-10-18T22:39:19.225Z,19.30
2018-10-18T22:41:48.500Z,17.80
2018-10-18T22:44:17.743Z,19.23
2018-10-18T22:46:47.072Z,18.93
2018-10-18T22:49:16.314Z,18.07
2018-10-18T22:51:45.574Z,19.43
2018-10-18T22:54:14.899Z,21.07
2018-10-18T22:56:44.147Z,18.70
2018-10-18T22:59:13.440Z,21.07
2018-10-18T23:01:42.768Z,21.00
2018-10-18T23:04:12.013Z,19.80
2018-10-18T23:06:41.304Z,18.07
2018-10-18T23:09:12.095Z,21.60
2018-10-18T23:11:41.620Z,20.37
2018-10-18T23:14:11.314Z,18.63
2018-10-18T23:16:40.592Z,19.67
2018-10-18T23:19:10.821Z,20.00
2018-10-18T23:21:40.150Z,19.03
2018-10-18T23:24:09.413Z,19.00
2018-10-18T23:26:38.750Z,20.23
2018-10-18T23:29:08.171Z,18.40
2018-10-18T23:31:37.405Z,20.90
2018-10-18T23:34:07.016Z,18.17
2018-10-18T23:36:36.319Z,20.37
2018-10-18T23:39:07.764Z,18.53
2018-10-18T23:41:37.062Z,19.80
2018-10-18T23:44:06.523Z,18.43
2018-10-18T23:46:35.773Z,16.83
2018-10-18T23:49:05.084Z,18.93
2018-10-18T23:51:34.327Z,17.67
2018-10-18T23:54:03.644Z,16.07
2018-10-18T23:56:32.920Z,16.70
2018-10-18T23:59:02.261Z,17.87
